createdAt,value
2022-08-03T00:01:27.139Z,26.50
2022-08-03T00:03:53.874Z,26.50
2022-08-03T00:06:20.598Z,26.40
2022-08-03T00:08:47.339Z,26.40
2022-08-03T00:11:14.176Z,26.40
2022-08-03T00:13:40.949Z,26.30
2022-08-03T00:16:07.760Z,26.20
2022-08-03T00:18:34.584Z,26.20
2022-08-03T00:21:01.797Z,26.10
2022-08-03T00:23:50.978Z,26.10
2022-08-03T00:26:15.276Z,26.10
2022-08-03T00:28:42.163Z,26.10
2022-08-03T00:31:08.980Z,26.10
2022-08-03T00:33:58.431Z,26.10
2022-08-03T00:36:27.214Z,26.00
2022-08-03T00:38:54.203Z,26.00
2022-08-03T00:41:21.021Z,26.00
2022-08-03T00:43:47.838Z,25.90
2022-08-03T00:46:20.529Z,25.90
2022-08-03T00:48:49.895Z,25.80
2022-08-03T00:51:16.894Z,25.80
2022-08-03T00:53:43.581Z,25.90
2022-08-03T00:56:14.797Z,25.90
2022-08-03T00:58:43.502Z,26.00
2022-08-03T01:01:12.297Z,25.90
2022-08-03T01:03:39.318Z,25.90
2022-08-03T01:06:36.394Z,25.90
2022-08-03T01:09:12.238Z,25.90
2022-08-03T01:12:00.147Z,25.90
2022-08-03T01:14:35.805Z,25.90
2022-08-03T01:17:02.567Z,25.90
2022-08-03T01:19:38.300Z,25.90
2022-08-03T01:22:04.929Z,25.90
2022-08-03T01:25:00.045Z,25.90
2022-08-03T01:27:39.709Z,25.90
2022-08-03T01:30:09.085Z,25.80
2022-08-03T01:32:58.180Z,25.80
2022-08-03T01:35:48.566Z,25.80
2022-08-03T01:38:24.186Z,25.80
2022-08-03T01:40:54.634Z,25.80
2022-08-03T01:43:58.953Z,25.70
2022-08-03T01:46:15.728Z,25.70
2022-08-03T01:48:44.837Z,25.70
2022-08-03T01:51:12.538Z,25.70
2022-08-03T01:53:44.209Z,25.80
2022-08-03T01:56:13.282Z,25.70
2022-08-03T01:58:42.011Z,25.70
2022-08-03T02:01:10.050Z,25.70
2022-08-03T02:04:00.919Z,25.70
2022-08-03T02:07:01.601Z,25.60
2022-08-03T02:09:20.915Z,25.60
2022-08-03T02:11:48.968Z,25.60
2022-08-03T02:14:16.603Z,25.60
2022-08-03T02:16:45.845Z,25.60
2022-08-03T02:19:13.813Z,25.50
2022-08-03T02:21:57.194Z,25.40
2022-08-03T02:24:29.928Z,25.40
2022-08-03T02:26:58.671Z,25.40
2022-08-03T02:29:40.285Z,25.40
2022-08-03T02:32:11.704Z,25.40
2022-08-03T02:34:41.272Z,25.40
2022-08-03T02:37:10.396Z,25.40
2022-08-03T02:39:37.758Z,25.40
2022-08-03T02:42:08.801Z,25.40
2022-08-03T02:44:37.110Z,25.40
2022-08-03T02:47:09.408Z,25.30
2022-08-03T02:49:51.340Z,25.30
2022-08-03T02:52:21.745Z,25.30
2022-08-03T02:54:52.364Z,25.20
2022-08-03T02:57:20.941Z,25.10
2022-08-03T02:59:48.372Z,25.10
2022-08-03T03:02:17.371Z,25.00
2022-08-03T03:05:53.328Z,25.00
2022-08-03T03:07:35.345Z,25.00
2022-08-03T03:10:19.142Z,25.00
2022-08-03T03:12:48.299Z,25.00
2022-08-03T03:15:15.037Z,25.00
2022-08-03T03:17:43.649Z,24.90
2022-08-03T03:20:11.666Z,25.00
2022-08-03T03:22:40.216Z,24.90
2022-08-03T03:25:12.273Z,25.00
2022-08-03T03:27:39.851Z,24.90
2022-08-03T03:30:07.234Z,24.80
2022-08-03T03:32:34.455Z,24.80
2022-08-03T03:35:01.816Z,24.70
2022-08-03T03:37:28.638Z,24.60
2022-08-03T03:39:55.632Z,24.60
2022-08-03T03:42:22.803Z,24.50
2022-08-03T03:44:49.735Z,24.60
2022-08-03T03:47:16.676Z,24.60
2022-08-03T03:49:44.316Z,24.70
2022-08-03T03:52:11.038Z,24.70
2022-08-03T03:54:45.396Z,24.60
2022-08-03T03:57:13.008Z,24.50
2022-08-03T03:59:43.876Z,24.50
2022-08-03T04:02:12.318Z,24.40
2022-08-03T04:04:58.256Z,24.30
2022-08-03T04:07:45.442Z,24.40
2022-08-03T04:10:43.533Z,24.40
2022-08-03T04:13:14.511Z,24.50
2022-08-03T04:15:42.078Z,24.50
2022-08-03T04:18:13.803Z,24.50
2022-08-03T04:20:42.234Z,24.40
2022-08-03T04:23:13.490Z,24.30
2022-08-03T04:25:43.984Z,24.20
2022-08-03T04:28:29.621Z,24.20
2022-08-03T04:31:00.714Z,24.20
2022-08-03T04:33:31.298Z,24.30
2022-08-03T04:36:03.698Z,24.30
2022-08-03T04:38:37.884Z,24.30
2022-08-03T04:41:05.239Z,24.30
2022-08-03T04:43:33.587Z,24.20
2022-08-03T04:46:01.979Z,24.30
2022-08-03T04:48:29.188Z,24.30
2022-08-03T04:50:56.397Z,24.30
2022-08-03T04:53:23.295Z,24.20
2022-08-03T04:55:50.280Z,24.10
2022-08-03T04:58:17.012Z,24.10
2022-08-03T05:00:45.454Z,24.10
2022-08-03T05:03:20.505Z,24.00
2022-08-03T05:06:10.040Z,24.10
2022-08-03T05:08:46.068Z,24.20
2022-08-03T05:11:15.291Z,24.30
2022-08-03T05:13:42.484Z,24.40
2022-08-03T05:16:09.206Z,24.30
2022-08-03T05:18:36.069Z,24.40
2022-08-03T05:21:03.108Z,24.40
2022-08-03T05:23:29.875Z,24.50
2022-08-03T05:25:57.126Z,24.50
2022-08-03T05:28:23.868Z,24.50
2022-08-03T05:30:50.557Z,24.50
2022-08-03T05:33:17.348Z,24.40
2022-08-03T05:35:55.699Z,24.40
2022-08-03T05:38:34.327Z,24.40
2022-08-03T05:41:20.202Z,24.40
2022-08-03T05:43:50.314Z,24.40
2022-08-03T05:46:17.131Z,24.50
2022-08-03T05:48:44.113Z,24.40
2022-08-03T05:51:13.791Z,24.40
2022-08-03T05:53:42.038Z,24.50
2022-08-03T05:56:13.786Z,24.50
2022-08-03T05:58:44.000Z,24.50
2022-08-03T06:01:10.853Z,24.50
2022-08-03T06:03:37.708Z,24.50
2022-08-03T06:06:04.470Z,24.50
2022-08-03T06:08:31.279Z,24.60
2022-08-03T06:10:58.020Z,24.50
2022-08-03T06:13:24.771Z,24.50
2022-08-03T06:15:51.668Z,24.50
2022-08-03T06:18:18.402Z,24.40
2022-08-03T06:20:45.360Z,24.30
2022-08-03T06:23:17.850Z,24.30
2022-08-03T06:25:45.584Z,24.30
2022-08-03T06:31:01.251Z,24.30
2022-08-03T06:34:31.477Z,24.30
2022-08-03T06:36:15.515Z,24.30
2022-08-03T06:38:42.329Z,24.40
2022-08-03T06:41:09.155Z,24.50
2022-08-03T06:43:37.933Z,24.60
2022-08-03T06:46:24.487Z,24.60
2022-08-03T06:48:51.386Z,24.70
2022-08-03T06:51:18.162Z,24.80
2022-08-03T06:53:44.950Z,24.90
2022-08-03T06:56:11.759Z,25.00
2022-08-03T06:58:38.493Z,25.00
2022-08-03T07:01:05.279Z,25.10
2022-08-03T07:03:32.171Z,25.10
2022-08-03T07:06:00.187Z,25.20
2022-08-03T07:08:33.413Z,25.20
2022-08-03T07:11:01.583Z,25.30
2022-08-03T07:13:28.610Z,25.30
2022-08-03T07:15:56.602Z,25.40
2022-08-03T07:18:28.352Z,25.50
2022-08-03T07:20:59.702Z,25.50
2022-08-03T07:23:26.533Z,25.60
2022-08-03T07:25:53.292Z,25.60
2022-08-03T07:28:20.460Z,25.70
2022-08-03T07:30:47.677Z,25.60
2022-08-03T07:33:15.222Z,25.70
2022-08-03T07:35:42.074Z,25.70
2022-08-03T07:38:08.873Z,25.80
2022-08-03T07:40:35.711Z,25.80
2022-08-03T07:43:03.425Z,25.80
2022-08-03T07:45:31.018Z,25.90
2022-08-03T07:47:57.940Z,25.90
2022-08-03T07:50:25.310Z,26.00
2022-08-03T07:52:53.620Z,26.10
2022-08-03T07:55:25.637Z,26.10
2022-08-03T07:58:10.016Z,26.10
2022-08-03T08:00:37.098Z,26.20
2022-08-03T08:03:04.691Z,26.20
2022-08-03T08:05:31.798Z,26.30
2022-08-03T08:07:58.555Z,26.30
2022-08-03T08:10:25.746Z,26.40
2022-08-03T08:12:53.127Z,26.40
2022-08-03T08:15:20.076Z,26.50
2022-08-03T08:17:54.737Z,26.60
2022-08-03T08:20:28.000Z,26.60
2022-08-03T08:23:01.363Z,26.70
2022-08-03T08:25:30.412Z,26.80
2022-08-03T08:28:29.286Z,26.80
2022-08-03T08:30:45.255Z,26.90
2022-08-03T08:33:22.357Z,27.00
2022-08-03T08:35:51.245Z,27.00
2022-08-03T08:38:18.013Z,27.10
2022-08-03T08:40:45.156Z,27.10
2022-08-03T08:43:11.948Z,27.20
2022-08-03T08:45:40.524Z,27.20
2022-08-03T08:48:10.174Z,27.30
2022-08-03T08:50:38.842Z,27.40
2022-08-03T08:53:09.719Z,27.40
2022-08-03T08:55:56.961Z,27.50
2022-08-03T08:58:26.336Z,27.60
2022-08-03T09:00:53.298Z,27.70
2022-08-03T09:03:29.246Z,27.70
2022-08-03T09:05:59.290Z,27.80
2022-08-03T09:08:26.411Z,28.00
2022-08-03T09:10:53.167Z,28.00
2022-08-03T09:13:19.975Z,28.10
2022-08-03T09:15:52.744Z,28.10
2022-08-03T09:18:32.669Z,28.10
2022-08-03T09:21:33.594Z,28.20
2022-08-03T09:24:05.402Z,28.30
2022-08-03T09:26:35.474Z,28.40
2022-08-03T09:29:14.013Z,28.40
2022-08-03T09:31:43.485Z,28.50
2022-08-03T09:34:17.175Z,28.60
2022-08-03T09:36:46.735Z,28.60
2022-08-03T09:39:16.366Z,28.70
2022-08-03T09:41:45.863Z,28.70
2022-08-03T09:44:24.224Z,28.80
2022-08-03T09:46:56.944Z,28.90
2022-08-03T09:49:25.069Z,28.90
2022-08-03T09:52:33.873Z,29.00
2022-08-03T09:54:39.613Z,29.00
2022-08-03T09:57:06.607Z,29.10
2022-08-03T09:59:34.285Z,29.20
2022-08-03T10:02:01.955Z,29.20
2022-08-03T10:04:28.911Z,29.30
2022-08-03T10:07:06.036Z,29.30
2022-08-03T10:09:33.048Z,29.40
2022-08-03T10:12:11.004Z,29.40
2022-08-03T10:14:43.893Z,29.50
2022-08-03T10:17:10.702Z,29.50
2022-08-03T10:19:38.618Z,29.60
2022-08-03T10:22:19.770Z,29.70
2022-08-03T10:24:55.672Z,29.70
2022-08-03T10:27:27.368Z,29.80
2022-08-03T10:29:56.534Z,29.90
2022-08-03T10:32:30.489Z,29.90
2022-08-03T10:35:19.127Z,30.00
2022-08-03T10:37:59.855Z,30.10
2022-08-03T10:40:47.994Z,30.20
2022-08-03T10:43:22.916Z,30.30
2022-08-03T10:45:51.184Z,30.40
2022-08-03T10:48:19.393Z,30.40
2022-08-03T10:50:48.395Z,30.50
2022-08-03T10:53:15.341Z,30.60
2022-08-03T10:56:05.780Z,30.70
2022-08-03T10:58:53.475Z,30.80
2022-08-03T11:01:59.262Z,30.90
2022-08-03T11:04:29.732Z,31.10
2022-08-03T11:07:15.736Z,31.10
2022-08-03T11:09:44.419Z,31.20
2022-08-03T11:12:33.159Z,31.30
2022-08-03T11:15:05.407Z,31.40
2022-08-03T11:17:45.893Z,31.50
2022-08-03T11:20:44.868Z,31.60
2022-08-03T11:23:12.063Z,31.70
2022-08-03T11:26:16.801Z,31.80
2022-08-03T11:28:46.014Z,31.90
2022-08-03T11:31:48.842Z,32.10
2022-08-03T11:34:13.927Z,32.10
2022-08-03T11:37:18.044Z,32.20
2022-08-03T11:39:47.453Z,32.30
2022-08-03T11:42:23.823Z,32.40
2022-08-03T11:44:52.130Z,32.50
2022-08-03T11:47:24.119Z,32.80
2022-08-03T11:49:53.908Z,32.90
2022-08-03T11:52:27.356Z,32.90
2022-08-03T11:54:56.655Z,33.00
2022-08-03T11:59:13.118Z,33.10
2022-08-03T12:00:21.981Z,33.20
2022-08-03T12:03:01.655Z,33.30
2022-08-03T12:05:52.237Z,33.40
2022-08-03T12:08:40.190Z,33.50
2022-08-03T12:11:09.104Z,33.60
2022-08-03T12:14:44.067Z,33.70
2022-08-03T12:16:26.064Z,33.80
2022-08-03T12:19:06.895Z,33.90
2022-08-03T12:21:34.632Z,34.00
2022-08-03T12:24:04.138Z,34.00
2022-08-03T12:26:58.857Z,34.10
2022-08-03T12:29:27.321Z,34.30
2022-08-03T12:31:55.948Z,34.40
2022-08-03T12:34:23.294Z,34.50
2022-08-03T12:36:56.377Z,34.70
2022-08-03T12:39:25.179Z,34.80
2022-08-03T12:41:56.224Z,34.90
2022-08-03T12:44:34.495Z,35.10
2022-08-03T12:47:02.617Z,35.20
2022-08-03T12:49:44.162Z,35.40
2022-08-03T12:52:11.693Z,35.40
2022-08-03T12:54:38.629Z,35.50
2022-08-03T12:57:05.336Z,35.60
2022-08-03T12:59:40.532Z,35.70
2022-08-03T13:02:23.432Z,35.80
2022-08-03T13:04:52.045Z,36.00
2022-08-03T13:07:20.327Z,36.10
2022-08-03T13:09:49.957Z,36.20
2022-08-03T13:12:22.615Z,36.20
2022-08-03T13:14:51.978Z,36.20
2022-08-03T13:17:19.269Z,36.20
2022-08-03T13:19:47.841Z,36.30
2022-08-03T13:22:27.192Z,36.40
2022-08-03T13:24:58.184Z,36.60
2022-08-03T13:28:04.353Z,36.80
2022-08-03T13:30:13.592Z,36.80
2022-08-03T13:32:44.734Z,36.60
2022-08-03T13:35:11.695Z,36.60
2022-08-03T13:37:43.282Z,36.50
2022-08-03T13:40:14.773Z,36.60
2022-08-03T13:42:41.632Z,36.70
2022-08-03T13:45:09.731Z,36.70
2022-08-03T13:47:37.805Z,36.80
2022-08-03T13:50:04.954Z,36.90
2022-08-03T13:52:33.522Z,37.10
2022-08-03T13:55:01.529Z,37.10
2022-08-03T13:58:06.025Z,37.30
2022-08-03T14:00:26.353Z,37.20
2022-08-03T14:03:02.861Z,37.30
2022-08-03T14:05:33.125Z,37.30
2022-08-03T14:08:04.091Z,37.30
2022-08-03T14:10:39.305Z,37.40
2022-08-03T14:13:06.455Z,37.40
2022-08-03T14:15:37.454Z,37.50
2022-08-03T14:18:05.274Z,37.40
2022-08-03T14:20:37.994Z,37.50
2022-08-03T14:23:15.779Z,37.50
2022-08-03T14:25:50.479Z,37.40
2022-08-03T14:28:23.814Z,37.40
2022-08-03T14:30:55.845Z,37.40
2022-08-03T14:33:23.415Z,37.50
2022-08-03T14:35:51.601Z,37.60
2022-08-03T14:38:19.230Z,37.60
2022-08-03T14:40:46.432Z,37.60
2022-08-03T14:43:13.550Z,37.60
2022-08-03T14:45:41.245Z,37.60
2022-08-03T14:50:30.493Z,37.60
2022-08-03T14:50:55.515Z,37.60
2022-08-03T14:53:23.268Z,37.70
2022-08-03T14:55:51.870Z,37.60
2022-08-03T14:58:23.416Z,37.60
2022-08-03T15:00:53.798Z,37.60
2022-08-03T15:03:23.820Z,37.50
2022-08-03T15:05:56.039Z,37.50
2022-08-03T15:08:24.527Z,37.50
2022-08-03T15:10:52.001Z,37.60
2022-08-03T15:13:19.874Z,37.60
2022-08-03T15:15:47.872Z,37.60
2022-08-03T15:18:14.718Z,37.60
2022-08-03T15:20:46.198Z,37.60
2022-08-03T15:23:15.221Z,37.60
2022-08-03T15:26:03.703Z,37.50
2022-08-03T15:28:30.432Z,37.40
2022-08-03T15:30:57.312Z,37.40
2022-08-03T15:33:24.175Z,37.30
2022-08-03T15:35:51.728Z,37.30
2022-08-03T15:38:18.999Z,37.30
2022-08-03T15:40:45.822Z,37.30
2022-08-03T15:43:12.637Z,37.20
2022-08-03T15:45:40.649Z,37.10
2022-08-03T15:48:08.881Z,37.20
2022-08-03T15:50:35.956Z,37.20
2022-08-03T15:53:03.411Z,37.20
2022-08-03T15:55:31.129Z,37.10
2022-08-03T15:59:03.989Z,37.20
2022-08-03T16:00:45.498Z,37.10
2022-08-03T16:03:12.367Z,37.00
2022-08-03T16:05:39.162Z,37.10
2022-08-03T16:08:10.301Z,37.10
2022-08-03T16:10:40.712Z,37.00
2022-08-03T16:13:07.887Z,37.00
2022-08-03T16:15:38.513Z,37.00
2022-08-03T16:18:08.500Z,37.00
2022-08-03T16:20:35.580Z,36.90
2022-08-03T16:23:11.101Z,36.80
2022-08-03T16:25:44.385Z,36.80
2022-08-03T16:28:17.153Z,36.80
2022-08-03T16:30:46.170Z,36.80
2022-08-03T16:33:17.489Z,36.80
2022-08-03T16:35:46.214Z,36.80
2022-08-03T16:38:18.550Z,36.70
2022-08-03T16:40:47.073Z,36.70
2022-08-03T16:43:18.537Z,36.60
2022-08-03T16:45:46.743Z,36.60
2022-08-03T16:48:14.186Z,36.50
2022-08-03T16:50:41.194Z,36.40
2022-08-03T16:53:09.491Z,36.40
2022-08-03T16:55:48.728Z,36.40
2022-08-03T16:58:34.559Z,36.30
2022-08-03T17:01:21.899Z,36.30
2022-08-03T17:04:03.247Z,36.20
2022-08-03T17:06:35.330Z,36.10
2022-08-03T17:09:08.664Z,36.10
2022-08-03T17:11:44.014Z,36.00
2022-08-03T17:14:14.790Z,36.00
2022-08-03T17:16:52.829Z,35.90
2022-08-03T17:19:23.441Z,35.90
2022-08-03T17:22:04.795Z,35.70
2022-08-03T17:24:46.694Z,35.60
2022-08-03T17:28:49.346Z,35.50
2022-08-03T17:30:13.424Z,35.40
2022-08-03T17:32:56.638Z,35.30
2022-08-03T17:35:36.872Z,35.20
2022-08-03T17:38:08.899Z,35.10
2022-08-03T17:40:38.005Z,35.00
2022-08-03T17:44:13.736Z,35.00
2022-08-03T17:45:52.983Z,34.80
2022-08-03T17:48:26.255Z,34.70
2022-08-03T17:50:59.911Z,34.60
2022-08-03T17:53:34.730Z,34.50
2022-08-03T17:56:42.696Z,34.50
2022-08-03T17:59:08.969Z,34.40
2022-08-03T18:02:12.339Z,34.30
2022-08-03T18:04:57.262Z,34.20
2022-08-03T18:07:40.875Z,34.20
2022-08-03T18:10:11.414Z,34.10
2022-08-03T18:12:58.415Z,34.10
2022-08-03T18:15:34.958Z,34.00
2022-08-03T18:18:10.354Z,34.00
2022-08-03T18:20:41.917Z,34.00
2022-08-03T18:23:25.048Z,33.90
2022-08-03T18:25:59.505Z,33.80
2022-08-03T18:28:27.848Z,33.80
2022-08-03T18:30:56.875Z,33.70
2022-08-03T18:36:21.677Z,33.50
2022-08-03T18:38:58.393Z,33.60
2022-08-03T18:41:33.478Z,33.50
2022-08-03T18:44:06.688Z,33.50
2022-08-03T18:47:16.203Z,33.40
2022-08-03T18:50:13.046Z,33.40
2022-08-03T18:52:54.468Z,33.30
2022-08-03T18:55:33.432Z,33.20
2022-08-03T18:58:15.896Z,33.20
2022-08-03T19:01:00.795Z,33.10
2022-08-03T19:03:41.239Z,33.10
2022-08-03T19:06:19.973Z,33.00
2022-08-03T19:09:12.949Z,33.00
2022-08-03T19:12:14.280Z,32.90
2022-08-03T19:14:41.609Z,32.80
2022-08-03T19:17:10.970Z,32.80
2022-08-03T19:19:43.437Z,32.70
2022-08-03T19:22:16.074Z,32.60
2022-08-03T19:25:04.537Z,32.60
2022-08-03T19:27:34.835Z,32.40
2022-08-03T19:30:11.887Z,32.50
2022-08-03T19:32:49.226Z,32.40
2022-08-03T19:35:19.067Z,32.30
2022-08-03T19:38:03.641Z,32.30
2022-08-03T19:40:33.345Z,32.20
2022-08-03T19:43:08.512Z,32.20
2022-08-03T19:46:05.989Z,32.20
2022-08-03T19:48:32.887Z,32.10
2022-08-03T19:51:02.579Z,32.00
2022-08-03T19:53:44.944Z,32.00
2022-08-03T19:56:14.275Z,32.00
2022-08-03T19:58:43.360Z,31.90
2022-08-03T20:01:21.325Z,31.80
2022-08-03T20:03:49.804Z,31.80
2022-08-03T20:06:18.019Z,31.70
2022-08-03T20:08:45.468Z,31.70
2022-08-03T20:11:18.348Z,31.60
2022-08-03T20:13:48.982Z,31.60
2022-08-03T20:16:15.991Z,31.50
2022-08-03T20:18:43.316Z,31.50
2022-08-03T20:21:15.132Z,31.40
2022-08-03T20:24:00.019Z,31.40
2022-08-03T20:26:31.109Z,31.40
2022-08-03T20:29:08.965Z,31.30
2022-08-03T20:31:36.666Z,31.30
2022-08-03T20:34:03.981Z,31.20
2022-08-03T20:36:30.731Z,31.20
2022-08-03T20:38:59.637Z,31.20
2022-08-03T20:41:26.710Z,31.20
2022-08-03T20:43:53.655Z,31.20
2022-08-03T20:46:30.928Z,31.10
2022-08-03T20:49:04.836Z,31.10
2022-08-03T20:51:49.567Z,31.00
2022-08-03T20:54:29.601Z,31.00
2022-08-03T21:02:36.735Z,30.90
2022-08-03T21:05:08.539Z,30.80
2022-08-03T21:08:06.003Z,30.70
2022-08-03T21:10:37.888Z,30.70
2022-08-03T21:12:58.400Z,33.60
2022-08-03T21:13:07.829Z,30.90
2022-08-03T21:13:13.426Z,30.90
2022-08-03T21:13:23.235Z,30.60
2022-08-03T21:16:11.483Z,30.60
2022-08-03T21:18:51.209Z,30.50
2022-08-03T21:21:23.574Z,30.50
2022-08-03T21:23:53.420Z,30.40
2022-08-03T21:26:25.285Z,30.40
2022-08-03T21:28:54.667Z,30.30
2022-08-03T21:31:26.013Z,30.20
2022-08-03T21:34:00.741Z,30.10
2022-08-03T21:36:29.944Z,30.10
2022-08-03T21:38:58.014Z,30.00
2022-08-03T21:41:29.982Z,29.90
2022-08-03T21:43:57.386Z,29.90
2022-08-03T21:46:26.428Z,29.90
2022-08-03T21:50:07.081Z,29.80
2022-08-03T21:51:51.452Z,29.80
2022-08-03T21:54:20.777Z,29.80
2022-08-03T21:56:50.934Z,29.70
2022-08-03T21:59:20.033Z,29.70
2022-08-03T22:01:55.162Z,29.60
2022-08-03T22:04:54.981Z,29.50
2022-08-03T22:07:13.358Z,29.50
2022-08-03T22:09:40.759Z,29.50
2022-08-03T22:12:23.245Z,29.40
2022-08-03T22:15:00.514Z,29.40
2022-08-03T22:17:54.824Z,29.40
2022-08-03T22:20:20.923Z,29.30
2022-08-03T22:22:56.136Z,29.30
2022-08-03T22:25:29.033Z,29.20
2022-08-03T22:28:03.439Z,29.20
2022-08-03T22:30:31.588Z,29.20
2022-08-03T22:33:01.444Z,29.10
2022-08-03T22:35:29.845Z,29.10
2022-08-03T22:37:58.929Z,29.10
2022-08-03T22:40:27.252Z,29.10
2022-08-03T22:42:54.770Z,29.00
2022-08-03T22:46:07.126Z,29.00
2022-08-03T22:48:08.577Z,29.00
2022-08-03T22:50:35.714Z,28.90
2022-08-03T22:53:02.498Z,28.80
2022-08-03T22:55:29.533Z,28.80
2022-08-03T22:57:56.571Z,28.70
2022-08-03T23:00:24.565Z,28.60
2022-08-03T23:02:53.579Z,28.60
2022-08-03T23:06:01.071Z,28.60
2022-08-03T23:08:15.221Z,28.60
2022-08-03T23:10:46.838Z,28.50
2022-08-03T23:13:17.240Z,28.60
2022-08-03T23:15:52.397Z,28.50
2022-08-03T23:18:22.074Z,28.50
2022-08-03T23:20:53.419Z,28.40
2022-08-03T23:23:20.923Z,28.40
2022-08-03T23:25:50.794Z,28.40
2022-08-03T23:28:18.550Z,28.40
2022-08-03T23:30:45.664Z,28.40
2022-08-03T23:33:16.298Z,28.40
2022-08-03T23:36:18.787Z,28.30
2022-08-03T23:38:48.355Z,28.30
2022-08-03T23:41:16.562Z,28.30
2022-08-03T23:43:50.852Z,28.20
2022-08-03T23:46:22.114Z,28.20
2022-08-03T23:48:49.520Z,28.20
2022-08-03T23:51:49.058Z,28.10
2022-08-03T23:54:18.818Z,28.10
2022-08-03T23:56:58.800Z,28.00
2022-08-03T23:59:39.738Z,28.00
